イスタンブル の空港の天気 - METARとTAF

アタテュルク国際空港(イスタンブル) ( LTBA / IST ) - トルコ イスタンブル
飛行場実況気象(Metar)
観測時間09/25 06:20 EET (09/25 03:20 UTC)
風向・風速北 11m/s 瞬間風速16m/s
視程10km以上
天気現象
少しの雲 雲底高度 430m
全天の8割程度の雲 雲底高度 2440m
気温16℃
湿度82%
気圧1020hPa
METARLTBA 250320Z 35021G31KT 9999 FEW014 BKN080 16/13 Q1020 NOSIG RMK RWY17L 01019KT RWY05 34020KT RWY23 01019KT
過去の天気等 Google飛行場航空写真 Wunderground天気予報

過去48時間のMETAR

飛行場予報(TAF)
発表時間: 9/25 01:40 EET (9/24 22:40 UTC)
予報対象時間: 25日3時 EET ~ 26日9時 EET
風向・風速北 10m/s 瞬間風速 15m/s
視程10km以上
なし
25日3時 EET ~ 25日7時 EET に一時的に
風向・風速北北東 13m/s 瞬間風速 21m/s
天気現象弱いしゅう雨
全天の8割程度の雲 雲底高度 760m
25日7時 EET ~ 25日11時 EET に一時的に
風向・風速北北東 13m/s 瞬間風速 21m/s
天気現象弱いしゅう雨
全天の8割程度の雲 雲底高度 760m
TAF LTBA 242240Z 2500/2606 01020G30KT CAVOK
TEMPO 2500/2504 02025G40KT -SHRA BKN025
TEMPO 2504/2508 03025G40KT -SHRA BKN025